createdAt,value
2022-09-06T00:00:07.859Z,17.82
2022-09-06T00:01:07.845Z,17.82
2022-09-06T00:02:07.842Z,17.82
2022-09-06T00:03:07.944Z,17.81
2022-09-06T00:04:11.821Z,17.81
2022-09-06T00:05:08.808Z,17.80
2022-09-06T00:06:07.806Z,17.80
2022-09-06T00:07:07.790Z,17.80
2022-09-06T00:08:07.812Z,17.80
2022-09-06T00:09:07.771Z,17.80
2022-09-06T00:10:07.766Z,17.80
2022-09-06T00:11:07.759Z,17.79
2022-09-06T00:12:07.747Z,17.79
2022-09-06T00:13:07.746Z,17.79
2022-09-06T00:14:07.713Z,17.79
2022-09-06T00:15:07.706Z,17.80
2022-09-06T00:16:07.776Z,17.80
2022-09-06T00:17:07.657Z,17.80
2022-09-06T00:18:07.651Z,17.81
2022-09-06T00:19:07.659Z,17.81
2022-09-06T00:20:07.625Z,17.81
2022-09-06T00:21:08.369Z,17.82
2022-09-06T00:22:07.597Z,17.83
2022-09-06T00:23:07.621Z,17.84
2022-09-06T00:24:07.595Z,17.85
2022-09-06T00:25:07.584Z,17.86
2022-09-06T00:26:07.560Z,17.87
2022-09-06T00:27:07.549Z,17.88
2022-09-06T00:28:07.537Z,17.89
2022-09-06T00:29:07.541Z,17.90
2022-09-06T00:30:07.509Z,17.92
2022-09-06T00:31:07.527Z,17.92
2022-09-06T00:32:07.480Z,17.93
2022-09-06T00:33:07.479Z,17.93
2022-09-06T00:34:07.479Z,17.93
2022-09-06T00:35:07.463Z,17.94
2022-09-06T00:36:07.445Z,17.94
2022-09-06T00:37:07.427Z,17.95
2022-09-06T00:38:07.436Z,17.95
2022-09-06T00:39:07.407Z,17.96
2022-09-06T00:40:07.453Z,17.96
2022-09-06T00:41:07.393Z,17.96
2022-09-06T00:42:07.369Z,17.97
2022-09-06T00:43:07.377Z,17.98
2022-09-06T00:44:07.340Z,17.98
2022-09-06T00:45:07.354Z,17.99
2022-09-06T00:46:07.368Z,18.00
2022-09-06T00:47:07.320Z,18.01
2022-09-06T00:48:07.311Z,18.02
2022-09-06T00:49:07.313Z,18.03
2022-09-06T00:50:07.286Z,18.04
2022-09-06T00:51:07.270Z,18.05
2022-09-06T00:52:07.255Z,18.06
2022-09-06T00:53:07.249Z,18.06
2022-09-06T00:54:07.234Z,18.07
2022-09-06T00:55:07.242Z,18.07
2022-09-06T00:56:07.201Z,18.08
2022-09-06T00:57:07.203Z,18.08
2022-09-06T00:58:07.192Z,18.08
2022-09-06T00:59:07.162Z,18.09
2022-09-06T01:00:07.176Z,18.10
2022-09-06T01:01:07.207Z,18.10
2022-09-06T01:02:07.210Z,18.11
2022-09-06T01:03:07.133Z,18.11
2022-09-06T01:04:07.114Z,18.11
2022-09-06T01:05:07.121Z,18.10
2022-09-06T01:06:07.085Z,18.10
2022-09-06T01:07:07.087Z,18.09
2022-09-06T01:08:07.067Z,18.09
2022-09-06T01:09:07.055Z,18.09
2022-09-06T01:10:07.057Z,18.09
2022-09-06T01:11:07.037Z,18.09
2022-09-06T01:12:07.025Z,18.08
2022-09-06T01:13:07.016Z,18.08
2022-09-06T01:14:07.003Z,18.07
2022-09-06T01:15:06.986Z,18.07
2022-09-06T01:16:07.042Z,18.06
2022-09-06T01:17:06.958Z,18.06
2022-09-06T01:18:06.949Z,18.06
2022-09-06T01:19:06.940Z,18.06
2022-09-06T01:20:06.930Z,18.06
2022-09-06T01:21:06.939Z,18.06
2022-09-06T01:22:06.906Z,18.06
2022-09-06T01:23:06.898Z,18.06
2022-09-06T01:24:06.879Z,18.06
2022-09-06T01:25:06.877Z,18.07
2022-09-06T01:26:06.879Z,18.07
2022-09-06T01:27:06.848Z,18.07
2022-09-06T01:28:06.842Z,18.07
2022-09-06T01:29:06.819Z,18.07
2022-09-06T01:30:06.813Z,18.08
2022-09-06T01:31:06.881Z,18.08
2022-09-06T01:32:06.812Z,18.08
2022-09-06T01:33:06.778Z,18.09
2022-09-06T01:34:06.766Z,18.10
2022-09-06T01:35:06.761Z,18.10
2022-09-06T01:36:06.741Z,18.11
2022-09-06T01:37:10.194Z,18.11
2022-09-06T01:38:06.722Z,18.12
2022-09-06T01:39:06.710Z,18.12
2022-09-06T01:40:06.736Z,18.13
2022-09-06T01:41:06.691Z,18.14
2022-09-06T01:42:06.686Z,18.15
2022-09-06T01:43:10.663Z,18.16
2022-09-06T01:44:06.641Z,18.17
2022-09-06T01:45:06.653Z,18.18
2022-09-06T01:46:06.647Z,18.18
2022-09-06T01:47:06.632Z,18.18
2022-09-06T01:48:06.597Z,18.19
2022-09-06T01:49:06.593Z,18.19
2022-09-06T01:50:06.578Z,18.19
2022-09-06T01:51:06.563Z,18.20
2022-09-06T01:52:06.561Z,18.21
2022-09-06T01:53:06.558Z,18.23
2022-09-06T01:54:06.526Z,18.25
2022-09-06T01:55:06.523Z,18.27
2022-09-06T01:56:06.518Z,18.30
2022-09-06T01:57:06.507Z,18.33
2022-09-06T01:58:06.495Z,18.36
2022-09-06T01:59:06.475Z,18.40
2022-09-06T02:00:06.465Z,18.45
2022-09-06T02:01:06.485Z,18.49
2022-09-06T02:02:06.491Z,18.54
2022-09-06T02:03:06.448Z,18.58
2022-09-06T02:04:06.419Z,18.62
2022-09-06T02:05:06.418Z,18.65
2022-09-06T02:06:06.385Z,18.68
2022-09-06T02:07:06.392Z,18.71
2022-09-06T02:08:06.387Z,18.73
2022-09-06T02:09:06.358Z,18.75
2022-09-06T02:10:06.342Z,18.76
2022-09-06T02:11:06.332Z,18.77
2022-09-06T02:12:06.327Z,18.78
2022-09-06T02:13:06.361Z,18.78
2022-09-06T02:14:06.297Z,18.79
2022-09-06T02:15:06.288Z,18.79
2022-09-06T02:16:06.276Z,18.80
2022-09-06T02:17:06.346Z,18.81
2022-09-06T02:18:06.277Z,18.82
2022-09-06T02:19:06.250Z,18.82
2022-09-06T02:20:06.233Z,18.83
2022-09-06T02:21:06.228Z,18.84
2022-09-06T02:22:06.212Z,18.84
2022-09-06T02:23:06.206Z,18.85
2022-09-06T02:24:06.202Z,18.85
2022-09-06T02:25:06.186Z,18.86
2022-09-06T02:26:06.159Z,18.87
2022-09-06T02:27:06.150Z,18.89
2022-09-06T02:28:06.147Z,18.90
2022-09-06T02:29:06.151Z,18.91
2022-09-06T02:30:06.115Z,18.92
2022-09-06T02:31:06.152Z,18.93
2022-09-06T02:32:06.081Z,18.94
2022-09-06T02:33:06.073Z,18.95
2022-09-06T02:34:06.090Z,18.96
2022-09-06T02:35:06.059Z,18.97
2022-09-06T02:36:06.102Z,18.98
2022-09-06T02:37:06.072Z,18.99
2022-09-06T02:38:06.042Z,18.99
2022-09-06T02:39:06.067Z,19.00
2022-09-06T02:40:06.129Z,19.00
2022-09-06T02:41:06.001Z,19.00
2022-09-06T02:42:06.011Z,19.00
2022-09-06T02:43:05.972Z,19.00
2022-09-06T02:44:05.958Z,18.99
2022-09-06T02:45:05.963Z,18.99
2022-09-06T02:46:06.015Z,19.00
2022-09-06T02:47:05.919Z,19.00
2022-09-06T02:48:05.913Z,19.00
2022-09-06T02:49:05.887Z,19.01
2022-09-06T02:50:05.906Z,19.01
2022-09-06T02:51:05.880Z,19.02
2022-09-06T02:52:05.873Z,19.02
2022-09-06T02:53:05.846Z,19.03
2022-09-06T02:54:05.846Z,19.03
2022-09-06T02:55:05.827Z,19.03
2022-09-06T02:56:05.834Z,19.03
2022-09-06T02:57:05.806Z,19.03
2022-09-06T02:58:05.795Z,19.03
2022-09-06T02:59:05.777Z,19.03
2022-09-06T03:00:05.766Z,19.03
2022-09-06T03:01:05.832Z,19.02
2022-09-06T03:02:05.794Z,19.02
2022-09-06T03:03:05.726Z,19.01
2022-09-06T03:04:05.728Z,19.01
2022-09-06T03:05:05.711Z,19.00
2022-09-06T03:06:05.706Z,19.00
2022-09-06T03:07:05.698Z,18.99
2022-09-06T03:08:05.677Z,18.98
2022-09-06T03:09:05.661Z,18.98
2022-09-06T03:10:05.653Z,18.97
2022-09-06T03:11:05.645Z,18.96
2022-09-06T03:12:05.641Z,18.95
2022-09-06T03:13:05.631Z,18.94
2022-09-06T03:14:05.609Z,18.93
2022-09-06T03:15:05.590Z,18.93
2022-09-06T03:16:05.583Z,18.92
2022-09-06T03:17:05.663Z,18.91
2022-09-06T03:18:05.583Z,18.91
2022-09-06T03:19:05.545Z,18.90
2022-09-06T03:20:05.541Z,18.89
2022-09-06T03:21:05.562Z,18.88
2022-09-06T03:22:05.525Z,18.87
2022-09-06T03:23:05.512Z,18.86
2022-09-06T03:24:05.502Z,18.85
2022-09-06T03:25:05.481Z,18.84
2022-09-06T03:26:05.473Z,18.83
2022-09-06T03:27:05.458Z,18.81
2022-09-06T03:28:05.463Z,18.80
2022-09-06T03:29:05.431Z,18.78
2022-09-06T03:30:05.422Z,18.77
2022-09-06T03:31:05.462Z,18.75
2022-09-06T03:32:05.405Z,18.73
2022-09-06T03:33:05.384Z,18.71
2022-09-06T03:34:09.091Z,18.69
2022-09-06T03:35:06.365Z,18.68
2022-09-06T03:36:05.354Z,18.66
2022-09-06T03:37:05.346Z,18.65
2022-09-06T03:38:05.331Z,18.63
2022-09-06T03:39:05.335Z,18.62
2022-09-06T03:40:05.337Z,18.61
2022-09-06T03:41:05.297Z,18.59
2022-09-06T03:42:05.288Z,18.58
2022-09-06T03:43:05.275Z,18.57
2022-09-06T03:44:05.285Z,18.55
2022-09-06T03:45:05.246Z,18.54
2022-09-06T03:46:05.273Z,18.53
2022-09-06T03:47:05.215Z,18.51
2022-09-06T03:48:05.217Z,18.50
2022-09-06T03:49:05.211Z,18.48
2022-09-06T03:50:05.186Z,18.47
2022-09-06T03:51:05.179Z,18.44
2022-09-06T03:52:05.184Z,18.41
2022-09-06T03:53:05.159Z,18.38
2022-09-06T03:54:05.166Z,18.34
2022-09-06T03:55:05.150Z,18.30
2022-09-06T03:56:05.119Z,18.27
2022-09-06T03:57:05.113Z,18.25
2022-09-06T03:58:05.103Z,18.23
2022-09-06T03:59:05.099Z,18.21
2022-09-06T04:00:05.105Z,18.19
2022-09-06T04:01:05.146Z,18.17
2022-09-06T04:02:05.094Z,18.15
2022-09-06T04:03:05.038Z,18.13
2022-09-06T04:04:05.060Z,18.11
2022-09-06T04:05:05.029Z,18.09
2022-09-06T04:06:05.019Z,18.08
2022-09-06T04:07:05.001Z,18.06
2022-09-06T04:08:04.990Z,18.04
2022-09-06T04:09:04.976Z,18.02
2022-09-06T04:10:04.990Z,18.00
2022-09-06T04:11:04.956Z,17.98
2022-09-06T04:12:04.944Z,17.96
2022-09-06T04:13:04.922Z,17.94
2022-09-06T04:14:04.921Z,17.93
2022-09-06T04:15:04.906Z,17.92
2022-09-06T04:16:04.910Z,17.90
2022-09-06T04:17:04.882Z,17.89
2022-09-06T04:18:08.993Z,17.87
2022-09-06T04:19:04.856Z,17.86
2022-09-06T04:20:04.855Z,17.84
2022-09-06T04:21:04.852Z,17.82
2022-09-06T04:22:04.829Z,17.80
2022-09-06T04:23:04.808Z,17.79
2022-09-06T04:24:04.794Z,17.77
2022-09-06T04:25:04.789Z,17.74
2022-09-06T04:26:04.804Z,17.72
2022-09-06T04:27:04.764Z,17.70
2022-09-06T04:28:04.754Z,17.68
2022-09-06T04:29:04.733Z,17.66
2022-09-06T04:30:04.735Z,17.63
2022-09-06T04:31:05.353Z,17.61
2022-09-06T04:32:04.790Z,17.59
2022-09-06T04:33:04.695Z,17.57
2022-09-06T04:34:04.683Z,17.54
2022-09-06T04:35:04.669Z,17.52
2022-09-06T04:36:04.684Z,17.50
2022-09-06T04:37:04.654Z,17.48
2022-09-06T04:38:04.645Z,17.46
2022-09-06T04:39:04.624Z,17.44
2022-09-06T04:40:04.691Z,17.42
2022-09-06T04:41:04.619Z,17.39
2022-09-06T04:42:04.595Z,17.37
2022-09-06T04:43:04.587Z,17.35
2022-09-06T04:44:04.566Z,17.33
2022-09-06T04:45:04.558Z,17.32
2022-09-06T04:46:04.609Z,17.31
2022-09-06T04:47:09.178Z,17.29
2022-09-06T04:48:05.516Z,17.28
2022-09-06T04:49:04.514Z,17.26
2022-09-06T04:50:04.508Z,17.24
2022-09-06T04:51:04.482Z,17.21
2022-09-06T04:52:04.486Z,17.19
2022-09-06T04:53:04.460Z,17.16
2022-09-06T04:54:04.458Z,17.14
2022-09-06T04:55:04.446Z,17.12
2022-09-06T04:56:04.426Z,17.10
2022-09-06T04:57:04.428Z,17.08
2022-09-06T04:58:04.408Z,17.06
2022-09-06T04:59:04.394Z,17.04
2022-09-06T05:00:04.393Z,17.01
2022-09-06T05:01:04.430Z,16.99
2022-09-06T05:02:04.392Z,16.97
2022-09-06T05:03:04.341Z,16.94
2022-09-06T05:04:04.332Z,16.92
2022-09-06T05:05:04.311Z,16.90
2022-09-06T05:06:04.312Z,16.87
2022-09-06T05:07:04.313Z,16.85
2022-09-06T05:08:04.293Z,16.83
2022-09-06T05:09:04.281Z,16.80
2022-09-06T05:10:04.273Z,16.77
2022-09-06T05:11:04.253Z,16.75
2022-09-06T05:12:04.265Z,16.73
2022-09-06T05:13:04.247Z,16.71
2022-09-06T05:14:04.222Z,16.69
2022-09-06T05:15:04.199Z,16.68
2022-09-06T05:16:04.248Z,16.66
2022-09-06T05:17:04.184Z,16.65
2022-09-06T05:18:04.183Z,16.64
2022-09-06T05:19:04.162Z,16.63
2022-09-06T05:20:04.141Z,16.62
2022-09-06T05:21:04.120Z,16.61
2022-09-06T05:22:04.121Z,16.60
2022-09-06T05:23:04.131Z,16.59
2022-09-06T05:24:04.094Z,16.59
2022-09-06T05:25:04.086Z,16.59
2022-09-06T05:26:04.069Z,16.59
2022-09-06T05:27:04.066Z,16.58
2022-09-06T05:28:04.075Z,16.58
2022-09-06T05:29:04.053Z,16.58
2022-09-06T05:30:04.028Z,16.58
2022-09-06T05:31:04.026Z,16.59
2022-09-06T05:32:04.056Z,16.60
2022-09-06T05:33:04.007Z,16.60
2022-09-06T05:34:03.985Z,16.60
2022-09-06T05:35:03.967Z,16.60
2022-09-06T05:36:03.954Z,16.60
2022-09-06T05:37:03.940Z,16.60
2022-09-06T05:38:03.944Z,16.60
2022-09-06T05:39:03.947Z,16.60
2022-09-06T05:40:03.966Z,16.61
2022-09-06T05:41:03.891Z,16.62
2022-09-06T05:42:03.883Z,16.62
2022-09-06T05:43:03.878Z,16.63
2022-09-06T05:44:03.899Z,16.64
2022-09-06T05:45:03.845Z,16.65
2022-09-06T05:46:03.887Z,16.66
2022-09-06T05:47:03.828Z,16.67
2022-09-06T05:48:03.828Z,16.68
2022-09-06T05:49:03.809Z,16.70
2022-09-06T05:50:03.809Z,16.71
2022-09-06T05:51:03.783Z,16.72
2022-09-06T05:52:03.763Z,16.74
2022-09-06T05:53:03.757Z,16.74
2022-09-06T05:54:03.752Z,16.74
2022-09-06T05:55:03.771Z,16.73
2022-09-06T05:56:03.717Z,16.72
2022-09-06T05:57:03.707Z,16.72
2022-09-06T05:58:03.696Z,16.73
2022-09-06T05:59:03.693Z,16.73
2022-09-06T06:00:03.688Z,16.74
2022-09-06T06:01:03.689Z,16.75
2022-09-06T06:02:07.212Z,16.76
2022-09-06T06:03:03.630Z,16.77
2022-09-06T06:04:03.631Z,16.78
2022-09-06T06:05:03.631Z,16.79
2022-09-06T06:06:03.626Z,16.80
2022-09-06T06:07:03.608Z,16.80
2022-09-06T06:08:03.582Z,16.80
2022-09-06T06:09:03.562Z,16.80
2022-09-06T06:10:03.554Z,16.81
2022-09-06T06:11:03.561Z,16.82
2022-09-06T06:12:03.520Z,16.83
2022-09-06T06:13:03.519Z,16.84
2022-09-06T06:14:03.509Z,16.86
2022-09-06T06:15:03.508Z,16.88
2022-09-06T06:16:03.558Z,16.91
2022-09-06T06:17:03.490Z,16.93
2022-09-06T06:18:03.461Z,16.95
2022-09-06T06:19:03.444Z,16.97
2022-09-06T06:20:03.432Z,17.00
2022-09-06T06:21:03.426Z,17.04
2022-09-06T06:22:03.434Z,17.07
2022-09-06T06:23:03.397Z,17.11
2022-09-06T06:24:03.382Z,17.15
2022-09-06T06:25:03.374Z,17.19
2022-09-06T06:26:03.369Z,17.25
2022-09-06T06:27:03.373Z,17.31
2022-09-06T06:28:03.343Z,17.38
2022-09-06T06:29:03.323Z,17.47
2022-09-06T06:30:03.324Z,17.58
2022-09-06T06:31:03.301Z,17.71
2022-09-06T06:32:03.333Z,17.87
2022-09-06T06:33:03.304Z,18.08
2022-09-06T06:34:03.287Z,18.32
2022-09-06T06:35:03.273Z,18.58
2022-09-06T06:36:03.252Z,18.83
2022-09-06T06:37:03.245Z,19.07
2022-09-06T06:38:03.244Z,19.31
2022-09-06T06:39:03.222Z,19.55
2022-09-06T06:40:03.346Z,19.79
2022-09-06T06:41:06.551Z,20.02
2022-09-06T06:42:03.203Z,20.24
2022-09-06T06:43:03.188Z,20.46
2022-09-06T06:44:03.163Z,20.68
2022-09-06T06:45:03.139Z,20.89
2022-09-06T06:46:03.200Z,21.10
2022-09-06T06:47:03.147Z,21.31
2022-09-06T06:48:03.132Z,21.52
2022-09-06T06:49:03.099Z,21.74
2022-09-06T06:50:03.079Z,21.95
2022-09-06T06:51:03.084Z,22.12
2022-09-06T06:52:03.067Z,22.30
2022-09-06T06:53:03.081Z,22.49
2022-09-06T06:54:03.041Z,22.66
2022-09-06T06:55:03.030Z,22.83
2022-09-06T06:56:03.010Z,22.99
2022-09-06T06:57:03.011Z,23.16
2022-09-06T06:58:03.011Z,23.32
2022-09-06T06:59:02.982Z,23.49
2022-09-06T07:00:02.973Z,23.66
2022-09-06T07:01:03.079Z,23.82
2022-09-06T07:02:03.044Z,23.95
2022-09-06T07:03:02.957Z,24.05
2022-09-06T07:04:02.927Z,24.15
2022-09-06T07:05:02.985Z,24.27
2022-09-06T07:08:03.893Z,24.62
2022-09-06T07:09:02.872Z,24.74
2022-09-06T07:11:03.851Z,24.97
2022-09-06T07:12:02.829Z,25.05
2022-09-06T07:13:02.825Z,25.12
2022-09-06T07:14:02.827Z,25.19
2022-09-06T07:15:02.801Z,25.28
2022-09-06T07:16:02.828Z,25.35
2022-09-06T07:17:06.148Z,25.37
2022-09-06T07:18:03.767Z,25.35
2022-09-06T07:19:03.118Z,25.34
2022-09-06T07:20:18.207Z,25.31
2022-09-06T07:22:05.825Z,25.13
2022-09-06T07:25:02.697Z,25.08
2022-09-06T07:26:02.668Z,25.11
2022-09-06T07:28:05.855Z,25.07
2022-09-06T07:29:02.628Z,25.05
2022-09-06T07:30:02.661Z,25.03
2022-09-06T07:31:02.646Z,25.01
2022-09-06T07:33:03.601Z,24.98
2022-09-06T07:34:02.579Z,24.98
2022-09-06T07:35:02.603Z,24.95
2022-09-06T07:36:02.569Z,24.92
2022-09-06T07:37:02.558Z,24.90
2022-09-06T07:38:02.546Z,24.88
2022-09-06T07:39:02.530Z,24.87
2022-09-06T07:40:02.604Z,24.86
2022-09-06T07:41:02.503Z,24.84
2022-09-06T07:42:02.492Z,24.84
2022-09-06T07:43:02.492Z,24.84
2022-09-06T07:44:02.474Z,24.83
2022-09-06T07:45:02.459Z,24.83
2022-09-06T07:46:03.932Z,24.87
2022-09-06T07:48:03.425Z,24.92
2022-09-06T07:49:02.420Z,24.94
2022-09-06T07:51:03.407Z,24.94
2022-09-06T07:54:26.163Z,24.84
2022-09-06T07:55:03.339Z,24.80
2022-09-06T07:56:02.327Z,24.74
2022-09-06T07:57:02.339Z,24.68
2022-09-06T07:58:02.313Z,24.64
2022-09-06T07:59:02.300Z,24.63
2022-09-06T08:00:02.287Z,24.63
2022-09-06T08:01:02.409Z,24.65
2022-09-06T08:02:02.342Z,24.67
2022-09-06T08:03:02.247Z,24.68
2022-09-06T08:04:02.250Z,24.67
2022-09-06T08:05:02.595Z,24.64
2022-09-06T08:06:10.020Z,24.63
2022-09-06T08:09:03.207Z,24.71
2022-09-06T08:10:02.180Z,24.73
2022-09-06T08:11:02.159Z,24.74
2022-09-06T08:12:02.171Z,24.75
2022-09-06T08:13:02.138Z,24.75
2022-09-06T08:14:02.134Z,24.76
2022-09-06T08:15:02.122Z,24.79
2022-09-06T08:16:02.168Z,24.83
2022-09-06T08:17:02.124Z,24.87
2022-09-06T08:18:02.084Z,24.92
2022-09-06T08:19:02.080Z,24.92
2022-09-06T08:20:02.069Z,24.91
2022-09-06T08:21:02.056Z,24.91
2022-09-06T08:22:02.045Z,24.96
2022-09-06T08:23:02.073Z,25.02
2022-09-06T08:24:02.035Z,25.09
2022-09-06T08:25:02.008Z,25.14
2022-09-06T08:26:01.992Z,25.19
2022-09-06T08:27:01.996Z,25.21
2022-09-06T08:28:02.003Z,25.20
2022-09-06T08:29:01.969Z,25.15
2022-09-06T08:30:01.936Z,25.11
2022-09-06T08:31:01.936Z,25.09
2022-09-06T08:32:01.969Z,25.08
2022-09-06T08:33:01.934Z,25.08
2022-09-06T08:34:01.919Z,25.07
2022-09-06T08:35:01.897Z,25.05
2022-09-06T08:36:01.878Z,25.04
2022-09-06T08:37:01.876Z,25.04
2022-09-06T08:38:01.869Z,25.03
2022-09-06T08:39:01.897Z,25.02
2022-09-06T08:40:01.890Z,25.02
2022-09-06T08:41:01.830Z,25.02
2022-09-06T08:42:01.809Z,25.03
2022-09-06T08:43:01.856Z,25.02
2022-09-06T08:45:02.780Z,25.05
2022-09-06T08:46:01.774Z,25.05
2022-09-06T08:47:01.775Z,25.05
2022-09-06T08:48:01.740Z,25.05
2022-09-06T08:49:01.742Z,25.05
2022-09-06T08:50:01.738Z,25.04
2022-09-06T08:51:01.712Z,25.01
2022-09-06T08:52:01.711Z,24.97
2022-09-06T08:53:18.110Z,24.93
2022-09-06T08:54:02.681Z,24.89
2022-09-06T08:55:01.682Z,24.87
2022-09-06T08:56:01.658Z,24.85
2022-09-06T08:57:01.654Z,24.84
2022-09-06T08:58:01.636Z,24.84
2022-09-06T08:59:01.622Z,24.83
2022-09-06T09:00:01.614Z,24.82
2022-09-06T09:01:01.666Z,24.82
2022-09-06T09:02:01.642Z,24.83
2022-09-06T09:03:01.576Z,24.87
2022-09-06T09:04:01.568Z,24.93
2022-09-06T09:05:01.582Z,24.99
2022-09-06T09:06:01.560Z,25.03
2022-09-06T09:07:01.567Z,25.06
2022-09-06T09:08:01.518Z,25.07
2022-09-06T09:09:01.517Z,25.09
2022-09-06T09:10:01.516Z,25.11
2022-09-06T09:11:01.491Z,25.11
2022-09-06T09:12:01.488Z,25.11
2022-09-06T09:13:01.468Z,25.12
2022-09-06T09:14:01.454Z,25.13
2022-09-06T09:15:01.449Z,25.14
2022-09-06T09:16:01.471Z,25.15
2022-09-06T09:17:01.441Z,25.17
2022-09-06T09:18:01.418Z,25.18
2022-09-06T09:19:01.392Z,25.19
2022-09-06T09:20:01.380Z,25.21
2022-09-06T09:21:01.369Z,25.24
2022-09-06T09:22:01.379Z,25.28
2022-09-06T09:23:01.349Z,25.30
2022-09-06T09:24:01.341Z,25.33
2022-09-06T09:25:01.332Z,25.35
2022-09-06T09:26:01.331Z,25.38
2022-09-06T09:27:01.345Z,25.41
2022-09-06T09:28:01.292Z,25.43
2022-09-06T09:29:01.288Z,25.47
2022-09-06T09:31:02.298Z,25.60
2022-09-06T09:32:01.363Z,25.65
2022-09-06T09:33:01.237Z,25.69
2022-09-06T09:34:01.214Z,25.72
2022-09-06T09:35:01.237Z,25.75
2022-09-06T09:36:01.197Z,25.79
2022-09-06T09:38:07.718Z,25.84
2022-09-06T09:39:02.180Z,25.86
2022-09-06T09:40:01.241Z,25.90
2022-09-06T09:41:01.175Z,25.94
2022-09-06T09:42:01.131Z,25.98
2022-09-06T09:43:01.145Z,26.01
2022-09-06T09:44:04.455Z,26.00
2022-09-06T09:45:01.099Z,25.99
2022-09-06T09:46:01.116Z,25.98
2022-09-06T09:47:01.124Z,25.99
2022-09-06T09:48:01.078Z,26.00
2022-09-06T09:49:01.047Z,26.03
2022-09-06T09:50:01.028Z,26.05
2022-09-06T09:51:01.038Z,26.07
2022-09-06T09:52:01.019Z,26.10
2022-09-06T09:53:01.007Z,26.13
2022-09-06T09:54:01.012Z,26.17
2022-09-06T09:55:00.976Z,26.20
2022-09-06T09:56:00.970Z,26.23
2022-09-06T09:57:00.961Z,26.25
2022-09-06T09:58:00.944Z,26.29
2022-09-06T09:59:00.973Z,26.33
2022-09-06T10:00:00.926Z,26.38
2022-09-06T10:01:01.006Z,26.43
2022-09-06T10:02:00.901Z,26.46
2022-09-06T10:03:00.929Z,26.49
2022-09-06T10:05:01.861Z,26.55
2022-09-06T10:06:02.761Z,26.58
2022-09-06T10:07:08.197Z,26.62
2022-09-06T10:08:01.846Z,26.65
2022-09-06T10:09:00.849Z,26.66
2022-09-06T10:10:00.813Z,26.67
2022-09-06T10:11:00.795Z,26.67
2022-09-06T10:12:00.793Z,26.66
2022-09-06T10:13:00.783Z,26.65
2022-09-06T10:14:00.760Z,26.65
2022-09-06T10:15:04.915Z,26.64
2022-09-06T10:16:01.766Z,26.62
2022-09-06T10:17:00.732Z,26.61
2022-09-06T10:18:00.735Z,26.62
2022-09-06T10:19:00.710Z,26.65
2022-09-06T10:20:00.736Z,26.69
2022-09-06T10:21:00.689Z,26.72
2022-09-06T10:22:00.668Z,26.75
2022-09-06T10:23:00.654Z,26.79
2022-09-06T10:25:01.652Z,26.83
2022-09-06T10:26:00.629Z,26.86
2022-09-06T10:27:00.638Z,26.89
2022-09-06T10:28:10.940Z,26.92
2022-09-06T10:29:01.599Z,26.95
2022-09-06T10:30:00.585Z,26.98
2022-09-06T10:31:00.656Z,27.01
2022-09-06T10:32:00.559Z,27.02
2022-09-06T10:33:00.552Z,27.03
2022-09-06T10:34:00.540Z,27.05
2022-09-06T10:35:00.550Z,27.05
2022-09-06T10:36:00.516Z,27.05
2022-09-06T10:37:00.501Z,27.05
2022-09-06T10:38:00.488Z,27.06
2022-09-06T10:39:03.935Z,27.07
2022-09-06T10:40:00.514Z,27.08
2022-09-06T10:41:00.498Z,27.08
2022-09-06T10:42:00.468Z,27.08
2022-09-06T10:43:00.446Z,27.08
2022-09-06T10:44:00.422Z,27.07
2022-09-06T10:45:00.414Z,27.07
2022-09-06T10:46:00.417Z,27.07
2022-09-06T10:47:00.405Z,27.08
2022-09-06T10:48:00.373Z,27.09
2022-09-06T10:49:00.390Z,27.10
2022-09-06T10:50:00.357Z,27.11
2022-09-06T10:51:00.365Z,27.12
2022-09-06T10:52:00.337Z,27.13
2022-09-06T10:53:00.325Z,27.13
2022-09-06T10:54:00.313Z,27.12
2022-09-06T10:55:00.307Z,27.12
2022-09-06T10:56:01.562Z,27.12
2022-09-06T10:57:00.287Z,27.12
2022-09-06T11:00:01.235Z,27.13
2022-09-06T11:01:00.234Z,27.14
2022-09-06T11:02:00.350Z,27.15
2022-09-06T11:04:04.480Z,27.17
2022-09-06T11:06:01.194Z,27.17
2022-09-06T11:07:00.201Z,27.18
2022-09-06T11:09:01.257Z,27.21
2022-09-06T11:10:00.158Z,27.23
2022-09-06T11:11:00.141Z,27.24
2022-09-06T11:12:00.111Z,27.25
2022-09-06T11:13:00.118Z,27.26
2022-09-06T11:14:04.967Z,27.27
2022-09-06T11:15:01.083Z,27.29
2022-09-06T11:16:00.118Z,27.31
2022-09-06T11:17:00.076Z,27.33
2022-09-06T11:18:00.069Z,27.36
2022-09-06T11:19:00.031Z,27.38
2022-09-06T11:20:00.026Z,27.40
2022-09-06T11:21:00.011Z,27.39
2022-09-06T11:22:00.003Z,27.37
2022-09-06T11:23:00.001Z,27.34
2022-09-06T11:23:59.979Z,27.31
2022-09-06T11:24:59.955Z,27.28
2022-09-06T11:25:59.951Z,27.27
2022-09-06T11:26:59.942Z,27.26
2022-09-06T11:27:59.937Z,27.27
2022-09-06T11:28:59.935Z,27.29
2022-09-06T11:29:59.903Z,27.31
2022-09-06T11:30:59.945Z,27.33
2022-09-06T11:33:00.887Z,27.38
2022-09-06T11:34:01.272Z,27.40
2022-09-06T11:34:59.848Z,27.42
2022-09-06T11:35:59.839Z,27.43
2022-09-06T11:36:59.823Z,27.44
2022-09-06T11:37:59.823Z,27.45
2022-09-06T11:38:59.829Z,27.47
2022-09-06T11:41:00.784Z,27.48
2022-09-06T11:41:59.773Z,27.48
2022-09-06T11:42:59.762Z,27.47
2022-09-06T11:43:59.775Z,27.46
2022-09-06T11:44:59.730Z,27.43
2022-09-06T11:45:59.803Z,27.40
2022-09-06T11:46:59.727Z,27.37
2022-09-06T11:47:59.728Z,27.33
2022-09-06T11:48:59.710Z,27.30
2022-09-06T11:49:59.688Z,27.26
2022-09-06T11:50:59.672Z,27.22
2022-09-06T11:51:59.659Z,27.19
2022-09-06T11:52:59.654Z,27.17
2022-09-06T11:53:59.638Z,27.14
2022-09-06T11:54:59.640Z,27.12
2022-09-06T11:55:59.616Z,27.10
2022-09-06T11:56:59.591Z,27.08
2022-09-06T11:57:59.592Z,27.06
2022-09-06T11:58:59.583Z,27.04
2022-09-06T11:59:59.585Z,27.03
2022-09-06T12:00:59.554Z,27.02
2022-09-06T12:01:59.546Z,27.02
2022-09-06T12:05:00.479Z,26.98
2022-09-06T12:05:59.494Z,26.97
2022-09-06T12:06:59.484Z,26.96
2022-09-06T12:07:59.474Z,26.96
2022-09-06T12:08:59.464Z,26.95
2022-09-06T12:09:59.456Z,26.94
2022-09-06T12:10:59.460Z,26.93
2022-09-06T12:11:59.454Z,26.93
2022-09-06T12:12:59.416Z,26.92
2022-09-06T12:13:59.410Z,26.91
2022-09-06T12:14:59.397Z,26.91
2022-09-06T12:15:59.474Z,26.92
2022-09-06T12:16:59.376Z,26.93
2022-09-06T12:17:59.375Z,26.96
2022-09-06T12:18:59.351Z,26.99
2022-09-06T12:19:59.350Z,27.02
2022-09-06T12:20:59.339Z,27.06
2022-09-06T12:21:59.320Z,27.09
2022-09-06T12:22:59.297Z,27.13
2022-09-06T12:23:59.289Z,27.15
2022-09-06T12:24:59.281Z,27.17
2022-09-06T12:25:59.299Z,27.19
2022-09-06T12:26:59.249Z,27.20
2022-09-06T12:27:59.243Z,27.21
2022-09-06T12:28:59.237Z,27.22
2022-09-06T12:29:59.236Z,27.23
2022-09-06T12:30:59.267Z,27.25
2022-09-06T12:31:59.231Z,27.27
2022-09-06T12:32:59.193Z,27.30
2022-09-06T12:33:59.192Z,27.33
2022-09-06T12:36:01.352Z,27.41
2022-09-06T12:36:59.176Z,27.46
2022-09-06T12:37:59.144Z,27.51
2022-09-06T12:38:59.125Z,27.56
2022-09-06T12:39:59.169Z,27.60
2022-09-06T12:40:59.203Z,27.64
2022-09-06T12:41:59.093Z,27.68
2022-09-06T12:42:59.094Z,27.72
2022-09-06T12:43:59.065Z,27.76
2022-09-06T12:44:59.054Z,27.79
2022-09-06T12:45:59.089Z,27.82
2022-09-06T12:46:59.038Z,27.86
2022-09-06T12:47:59.047Z,27.89
2022-09-06T12:48:59.013Z,27.91
2022-09-06T12:49:59.004Z,27.93
2022-09-06T12:50:58.989Z,27.95
2022-09-06T12:51:58.982Z,27.97
2022-09-06T12:52:58.981Z,27.99
2022-09-06T12:53:58.967Z,28.01
2022-09-06T12:54:58.942Z,28.04
2022-09-06T12:55:58.936Z,28.06
2022-09-06T12:56:58.926Z,28.07
2022-09-06T12:57:58.921Z,28.07
2022-09-06T12:58:58.897Z,28.06
2022-09-06T12:59:58.889Z,28.04
2022-09-06T13:00:58.875Z,28.03
2022-09-06T13:01:58.942Z,28.01
2022-09-06T13:02:59.004Z,28.01
2022-09-06T13:03:58.849Z,28.01
2022-09-06T13:04:58.828Z,28.01
2022-09-06T13:05:58.823Z,28.02
2022-09-06T13:06:58.812Z,28.02
2022-09-06T13:07:58.817Z,28.01
2022-09-06T13:08:58.784Z,27.97
2022-09-06T13:09:58.785Z,27.93
2022-09-06T13:10:58.761Z,27.86
2022-09-06T13:11:58.763Z,27.76
2022-09-06T13:12:58.743Z,27.66
2022-09-06T13:13:58.735Z,27.58
2022-09-06T13:14:58.722Z,27.53
2022-09-06T13:15:58.747Z,27.51
2022-09-06T13:16:58.696Z,27.50
2022-09-06T13:17:58.705Z,27.51
2022-09-06T13:18:58.689Z,27.52
2022-09-06T13:19:58.665Z,27.53
2022-09-06T13:20:58.645Z,27.53